createdAt,value
2017-08-09T00:01:20.596Z,91.20
2017-08-09T00:03:46.608Z,91.20
2017-08-09T00:06:12.636Z,91.20
2017-08-09T00:08:38.657Z,91.00
2017-08-09T00:11:04.681Z,91.20
2017-08-09T00:13:31.445Z,91.30
2017-08-09T00:15:57.460Z,91.30
2017-08-09T00:18:23.498Z,91.20
2017-08-09T00:20:49.537Z,91.20
2017-08-09T00:23:16.309Z,91.10
2017-08-09T00:25:42.346Z,91.10
2017-08-09T00:28:08.373Z,91.00
2017-08-09T00:30:35.130Z,91.60
2017-08-09T00:33:01.188Z,91.30
2017-08-09T00:35:27.225Z,91.30
2017-08-09T00:37:54.009Z,91.30
2017-08-09T00:40:20.045Z,91.30
2017-08-09T00:42:46.841Z,91.40
2017-08-09T00:45:12.903Z,91.40
2017-08-09T00:47:38.942Z,91.40
2017-08-09T00:50:04.976Z,90.90
2017-08-09T00:52:31.017Z,91.10
2017-08-09T00:54:57.094Z,90.80
2017-08-09T00:57:23.132Z,90.50
2017-08-09T00:59:49.166Z,90.70
2017-08-09T01:02:15.236Z,90.30
2017-08-09T01:04:41.289Z,90.50
2017-08-09T01:07:07.325Z,90.20
2017-08-09T01:09:33.360Z,90.40
2017-08-09T01:11:59.409Z,90.30
2017-08-09T01:14:25.437Z,90.40
2017-08-09T01:16:51.485Z,90.50
2017-08-09T01:19:17.541Z,90.70
2017-08-09T01:21:43.577Z,90.30
2017-08-09T01:24:09.609Z,90.40
2017-08-09T01:26:35.625Z,90.50
2017-08-09T01:29:01.689Z,90.60
2017-08-09T01:31:27.725Z,90.70
2017-08-09T01:33:53.768Z,90.40
2017-08-09T01:36:19.814Z,90.40
2017-08-09T01:38:45.885Z,90.60
2017-08-09T01:41:26.919Z,90.60
2017-08-09T01:43:52.945Z,90.30
2017-08-09T01:46:19.078Z,90.50
2017-08-09T01:48:45.096Z,90.60
2017-08-09T01:51:11.140Z,90.30
2017-08-09T01:53:37.193Z,90.40
2017-08-09T01:56:03.984Z,90.60
2017-08-09T01:58:30.008Z,90.60
2017-08-09T02:00:56.064Z,90.30
2017-08-09T02:03:22.141Z,90.40
2017-08-09T02:05:48.345Z,90.40
2017-08-09T02:08:15.217Z,90.10
2017-08-09T02:10:41.253Z,90.10
2017-08-09T02:13:07.406Z,90.10
2017-08-09T02:15:33.432Z,90.10
2017-08-09T02:17:59.468Z,90.00
2017-08-09T02:20:25.698Z,88.80
2017-08-09T02:22:51.790Z,88.40
2017-08-09T02:25:17.805Z,88.80
2017-08-09T02:27:43.860Z,89.10
2017-08-09T02:30:10.653Z,89.00
2017-08-09T02:32:36.684Z,88.90
2017-08-09T02:35:02.704Z,88.40
2017-08-09T02:37:29.477Z,88.20
2017-08-09T02:39:55.505Z,88.70
2017-08-09T02:42:21.509Z,88.90
2017-08-09T02:44:47.561Z,88.60
2017-08-09T02:47:13.562Z,88.40
2017-08-09T02:49:39.574Z,88.50
2017-08-09T02:52:06.344Z,88.40
2017-08-09T02:54:32.407Z,88.30
2017-08-09T02:56:58.447Z,88.20
2017-08-09T02:59:24.461Z,87.50
2017-08-09T03:01:50.485Z,87.40
2017-08-09T03:04:16.493Z,87.30
2017-08-09T03:06:42.528Z,86.50
2017-08-09T03:09:08.570Z,86.70
2017-08-09T03:11:34.584Z,86.70
2017-08-09T03:14:00.609Z,86.60
2017-08-09T03:16:26.632Z,86.70
2017-08-09T03:18:52.661Z,86.70
2017-08-09T03:21:25.636Z,86.70
2017-08-09T03:23:51.657Z,86.10
2017-08-09T03:26:17.705Z,86.20
2017-08-09T03:28:43.724Z,86.00
2017-08-09T03:31:09.818Z,86.10
2017-08-09T03:33:35.840Z,85.40
2017-08-09T03:36:01.873Z,85.30
2017-08-09T03:38:27.892Z,85.00
2017-08-09T03:41:00.805Z,85.00
2017-08-09T03:43:26.857Z,84.70
2017-08-09T03:45:52.870Z,85.40
2017-08-09T03:48:18.892Z,85.50
2017-08-09T03:50:44.931Z,85.00
2017-08-09T03:53:10.956Z,85.10
2017-08-09T03:55:36.991Z,85.10
2017-08-09T03:58:03.044Z,85.20
2017-08-09T04:00:29.065Z,85.30
2017-08-09T04:02:55.836Z,86.20
2017-08-09T04:05:21.880Z,86.20
2017-08-09T04:07:47.905Z,86.00
2017-08-09T04:10:13.916Z,85.00
2017-08-09T04:12:40.783Z,85.10
2017-08-09T04:15:06.817Z,84.40
2017-08-09T04:17:32.862Z,85.40
2017-08-09T04:19:58.906Z,85.60
2017-08-09T04:22:24.969Z,85.50
2017-08-09T04:24:51.013Z,86.10
2017-08-09T04:27:17.073Z,86.00
2017-08-09T04:29:43.114Z,86.50
2017-08-09T04:32:09.157Z,86.30
2017-08-09T04:34:35.212Z,86.40
2017-08-09T04:37:01.254Z,86.30
2017-08-09T04:39:27.296Z,86.30
2017-08-09T04:41:53.323Z,86.30
2017-08-09T04:44:19.351Z,86.60
2017-08-09T04:46:45.368Z,86.70
2017-08-09T04:49:12.137Z,86.70
2017-08-09T04:51:38.157Z,86.60
2017-08-09T04:54:04.182Z,86.70
2017-08-09T04:56:30.230Z,87.00
2017-08-09T04:58:56.252Z,87.20
2017-08-09T05:01:22.278Z,88.00
2017-08-09T05:03:48.285Z,87.10
2017-08-09T05:06:14.315Z,87.10
2017-08-09T05:08:40.324Z,87.10
2017-08-09T05:11:06.346Z,87.10
2017-08-09T05:13:32.393Z,86.80
2017-08-09T05:15:58.413Z,86.90
2017-08-09T05:18:24.484Z,86.90
2017-08-09T05:20:50.592Z,87.10
2017-08-09T05:23:16.740Z,87.10
2017-08-09T05:25:42.812Z,86.30
2017-08-09T05:28:08.826Z,86.00
2017-08-09T05:30:34.841Z,86.40
2017-08-09T05:33:00.979Z,86.20
2017-08-09T05:35:26.977Z,86.50
2017-08-09T05:37:53.076Z,86.20
2017-08-09T05:40:19.856Z,86.10
2017-08-09T05:42:45.896Z,86.10
2017-08-09T05:45:12.025Z,85.90
2017-08-09T05:47:38.165Z,86.00
2017-08-09T05:50:04.205Z,85.30
2017-08-09T05:52:30.236Z,85.20
2017-08-09T05:54:56.285Z,85.10
2017-08-09T05:57:22.333Z,85.50
2017-08-09T05:59:48.498Z,84.80
2017-08-09T06:02:14.545Z,84.90
2017-08-09T06:04:40.604Z,85.00
2017-08-09T06:07:06.696Z,85.10
2017-08-09T06:09:33.512Z,84.20
2017-08-09T06:11:59.548Z,84.20
2017-08-09T06:14:25.690Z,84.40
2017-08-09T06:16:51.780Z,84.00
2017-08-09T06:19:17.960Z,83.50
2017-08-09T06:21:44.749Z,83.10
2017-08-09T06:24:10.774Z,83.10
2017-08-09T06:26:36.816Z,82.20
2017-08-09T06:29:02.866Z,82.10
2017-08-09T06:31:28.913Z,82.40
2017-08-09T06:33:54.930Z,82.10
2017-08-09T06:36:20.948Z,82.10
2017-08-09T06:38:47.008Z,82.00
2017-08-09T06:41:13.049Z,80.80
2017-08-09T06:43:39.192Z,81.30
2017-08-09T06:46:05.232Z,81.10
2017-08-09T06:48:31.313Z,81.10
2017-08-09T06:50:57.369Z,80.70
2017-08-09T06:53:23.422Z,80.20
2017-08-09T06:55:49.460Z,79.10
2017-08-09T06:58:15.485Z,78.00
2017-08-09T07:00:41.528Z,77.50
2017-08-09T07:03:07.557Z,78.10
2017-08-09T07:05:33.590Z,76.90
2017-08-09T07:07:59.624Z,76.80
2017-08-09T07:10:25.653Z,76.70
2017-08-09T07:12:51.695Z,75.70
2017-08-09T07:15:17.726Z,74.10
2017-08-09T07:17:43.753Z,74.70
2017-08-09T07:20:09.795Z,74.30
2017-08-09T07:22:35.840Z,73.40
2017-08-09T07:25:01.883Z,73.50
2017-08-09T07:27:27.949Z,73.00
2017-08-09T07:29:53.989Z,72.80
2017-08-09T07:32:20.039Z,72.30
2017-08-09T07:34:46.813Z,71.50
2017-08-09T07:37:12.880Z,71.50
2017-08-09T07:39:38.912Z,72.50
2017-08-09T07:42:04.928Z,73.10
2017-08-09T07:44:30.961Z,73.00
2017-08-09T07:46:56.981Z,71.60
2017-08-09T07:49:23.010Z,70.60
2017-08-09T07:51:49.033Z,70.60
2017-08-09T07:54:15.067Z,69.80
2017-08-09T07:56:41.090Z,69.60
2017-08-09T07:59:07.130Z,69.80
2017-08-09T08:01:33.157Z,69.60
2017-08-09T08:03:59.190Z,70.10
2017-08-09T08:06:26.069Z,68.90
2017-08-09T08:08:52.131Z,68.90
2017-08-09T08:11:18.245Z,67.20
2017-08-09T08:13:45.000Z,66.80
2017-08-09T08:16:11.020Z,66.80
2017-08-09T08:18:37.040Z,67.60
2017-08-09T08:21:03.093Z,68.50
2017-08-09T08:23:29.113Z,67.80
2017-08-09T08:25:55.138Z,66.60
2017-08-09T08:28:21.153Z,65.80
2017-08-09T08:30:47.192Z,65.50
2017-08-09T08:33:13.225Z,65.00
2017-08-09T08:35:39.294Z,65.30
2017-08-09T08:38:05.315Z,65.60
2017-08-09T08:40:31.364Z,64.60
2017-08-09T09:42:06.022Z,64.00
2017-08-09T09:44:32.075Z,56.60
2017-08-09T09:46:58.109Z,56.20
2017-08-09T09:49:24.161Z,58.70
2017-08-09T09:51:50.185Z,59.90
2017-08-09T09:54:16.208Z,60.10
2017-08-09T09:56:49.104Z,60.80
2017-08-09T09:59:15.122Z,61.30
2017-08-09T10:01:41.150Z,62.20
2017-08-09T10:04:07.161Z,61.10
2017-08-09T10:06:33.200Z,58.20
2017-08-09T10:08:59.228Z,57.10
2017-08-09T10:11:25.251Z,55.30
2017-08-09T10:18:47.637Z,55.60
2017-08-09T10:21:13.648Z,55.30
2017-08-09T10:23:39.660Z,56.30
2017-08-09T10:26:05.697Z,56.40
2017-08-09T10:28:32.470Z,58.30
2017-08-09T10:30:58.496Z,58.30
2017-08-09T10:33:25.388Z,59.00
2017-08-09T10:35:51.392Z,58.60
2017-08-09T10:38:18.132Z,58.90
2017-08-09T10:40:44.157Z,58.90
2017-08-09T11:10:26.164Z,58.10
2017-08-09T11:12:52.196Z,58.50
2017-08-09T11:15:18.973Z,58.70
2017-08-09T11:17:44.993Z,59.70
2017-08-09T11:20:11.029Z,58.70
2017-08-09T14:52:17.352Z,56.60
2017-08-09T14:54:43.393Z,39.90
2017-08-09T15:26:43.092Z,35.60
2017-08-09T15:29:09.129Z,38.00
2017-08-09T15:31:35.889Z,40.70
2017-08-09T15:34:01.966Z,40.60
2017-08-09T15:36:28.005Z,40.50
2017-08-09T15:38:54.033Z,40.00
2017-08-09T15:41:20.053Z,41.70
2017-08-09T15:43:46.085Z,42.80
2017-08-09T15:46:12.845Z,39.40
2017-08-09T15:48:38.865Z,39.20
2017-08-09T15:51:04.864Z,39.30
